sensor_id;sensor_type;location;lat;lon;timestamp;pressure;altitude;pressure_sealevel;temperature;humidity
57048;BME280;42934;54.294;18.598;2022-10-16T00:00:13;100517.78;;;12.76;86.03
57048;BME280;42934;54.294;18.598;2022-10-16T00:03:02;100517.72;;;12.77;85.90
57048;BME280;42934;54.294;18.598;2022-10-16T00:05:33;100518.50;;;12.79;86.07
57048;BME280;42934;54.294;18.598;2022-10-16T00:08:02;100521.00;;;12.82;86.04
57048;BME280;42934;54.294;18.598;2022-10-16T00:10:31;100509.47;;;12.85;86.29
57048;BME280;42934;54.294;18.598;2022-10-16T00:13:00;100513.88;;;12.84;86.13
57048;BME280;42934;54.294;18.598;2022-10-16T00:15:29;100518.13;;;12.88;86.47
57048;BME280;42934;54.294;18.598;2022-10-16T00:17:58;100516.34;;;12.89;86.46
57048;BME280;42934;54.294;18.598;2022-10-16T00:20:28;100511.78;;;12.92;86.73
57048;BME280;42934;54.294;18.598;2022-10-16T00:22:59;100505.66;;;12.92;86.86
57048;BME280;42934;54.294;18.598;2022-10-16T00:25:28;100512.56;;;12.94;86.92
57048;BME280;42934;54.294;18.598;2022-10-16T00:28:00;100516.06;;;12.95;87.00
57048;BME280;42934;54.294;18.598;2022-10-16T00:30:29;100522.13;;;12.97;87.03
57048;BME280;42934;54.294;18.598;2022-10-16T00:32:58;100525.47;;;13.01;87.06
57048;BME280;42934;54.294;18.598;2022-10-16T00:35:27;100522.75;;;13.02;87.25
57048;BME280;42934;54.294;18.598;2022-10-16T00:37:56;100519.06;;;13.06;87.50
57048;BME280;42934;54.294;18.598;2022-10-16T00:40:26;100514.50;;;13.10;87.46
57048;BME280;42934;54.294;18.598;2022-10-16T00:42:57;100525.06;;;13.10;87.46
57048;BME280;42934;54.294;18.598;2022-10-16T00:45:26;100524.22;;;13.09;87.70
57048;BME280;42934;54.294;18.598;2022-10-16T00:47:56;100531.97;;;13.12;88.13
57048;BME280;42934;54.294;18.598;2022-10-16T00:50:28;100533.63;;;13.15;88.56
57048;BME280;42934;54.294;18.598;2022-10-16T00:52:59;100541.38;;;13.18;88.45
57048;BME280;42934;54.294;18.598;2022-10-16T00:55:30;100536.88;;;13.20;88.33
57048;BME280;42934;54.294;18.598;2022-10-16T00:58:00;100532.41;;;13.22;88.61
57048;BME280;42934;54.294;18.598;2022-10-16T01:00:29;100534.00;;;13.26;88.67
57048;BME280;42934;54.294;18.598;2022-10-16T01:02:59;100524.25;;;13.28;88.60
57048;BME280;42934;54.294;18.598;2022-10-16T01:05:32;100530.31;;;13.30;88.97
57048;BME280;42934;54.294;18.598;2022-10-16T01:08:08;100529.38;;;13.31;88.87
57048;BME280;42934;54.294;18.598;2022-10-16T01:10:43;100522.16;;;13.35;89.05
57048;BME280;42934;54.294;18.598;2022-10-16T01:13:21;100522.16;;;13.35;89.76
57048;BME280;42934;54.294;18.598;2022-10-16T01:15:56;100520.41;;;13.35;89.74
57048;BME280;42934;54.294;18.598;2022-10-16T01:18:34;100516.00;;;13.36;89.73
57048;BME280;42934;54.294;18.598;2022-10-16T01:21:09;100514.84;;;13.42;89.79
57048;BME280;42934;54.294;18.598;2022-10-16T01:23:48;100524.38;;;13.44;89.77
57048;BME280;42934;54.294;18.598;2022-10-16T01:26:38;100520.03;;;13.43;90.23
57048;BME280;42934;54.294;18.598;2022-10-16T01:29:16;100525.97;;;13.48;90.09
57048;BME280;42934;54.294;18.598;2022-10-16T01:31:50;100526.81;;;13.49;90.05
57048;BME280;42934;54.294;18.598;2022-10-16T01:34:27;100532.03;;;13.50;90.00
57048;BME280;42934;54.294;18.598;2022-10-16T01:37:04;100542.50;;;13.52;90.32
57048;BME280;42934;54.294;18.598;2022-10-16T01:39:36;100535.28;;;13.55;90.44
57048;BME280;42934;54.294;18.598;2022-10-16T01:42:09;100543.06;;;13.58;90.67
57048;BME280;42934;54.294;18.598;2022-10-16T01:44:41;100544.78;;;13.59;90.66
57048;BME280;42934;54.294;18.598;2022-10-16T01:47:12;100541.16;;;13.62;90.67
57048;BME280;42934;54.294;18.598;2022-10-16T01:49:43;100548.03;;;13.64;90.42
57048;BME280;42934;54.294;18.598;2022-10-16T01:52:15;100550.63;;;13.66;90.65
57048;BME280;42934;54.294;18.598;2022-10-16T01:54:47;100551.41;;;13.68;90.44
57048;BME280;42934;54.294;18.598;2022-10-16T01:57:20;100556.59;;;13.70;90.71
57048;BME280;42934;54.294;18.598;2022-10-16T01:59:56;100560.03;;;13.72;90.72
57048;BME280;42934;54.294;18.598;2022-10-16T02:02:29;100541.56;;;13.72;90.65
57048;BME280;42934;54.294;18.598;2022-10-16T02:05:04;100538.69;;;13.76;90.86
57048;BME280;42934;54.294;18.598;2022-10-16T02:07:37;100530.63;;;13.79;90.86
57048;BME280;42934;54.294;18.598;2022-10-16T02:10:06;100529.56;;;13.83;90.69
57048;BME280;42934;54.294;18.598;2022-10-16T02:12:37;100523.34;;;13.84;90.64
57048;BME280;42934;54.294;18.598;2022-10-16T02:15:11;100525.94;;;13.86;90.64
57048;BME280;42934;54.294;18.598;2022-10-16T02:17:40;100528.56;;;13.86;90.91
57048;BME280;42934;54.294;18.598;2022-10-16T02:20:10;100528.56;;;13.86;91.07
57048;BME280;42934;54.294;18.598;2022-10-16T02:22:39;100524.28;;;13.83;91.04
57048;BME280;42934;54.294;18.598;2022-10-16T02:25:11;100525.22;;;13.82;91.12
57048;BME280;42934;54.294;18.598;2022-10-16T02:27:46;100520.81;;;13.83;91.10
57048;BME280;42934;54.294;18.598;2022-10-16T02:30:22;100525.22;;;13.82;91.20
57048;BME280;42934;54.294;18.598;2022-10-16T02:32:54;100524.28;;;13.83;91.03
57048;BME280;42934;54.294;18.598;2022-10-16T02:35:25;100528.72;;;13.83;91.25
57048;BME280;42934;54.294;18.598;2022-10-16T02:37:54;100520.06;;;13.79;91.33
57048;BME280;42934;54.294;18.598;2022-10-16T02:40:25;100519.31;;;13.77;91.62
57048;BME280;42934;54.294;18.598;2022-10-16T02:42:55;100510.69;;;13.74;91.64
57048;BME280;42934;54.294;18.598;2022-10-16T02:45:26;100515.81;;;13.77;91.69
57048;BME280;42934;54.294;18.598;2022-10-16T02:47:55;100524.50;;;13.79;91.41
57048;BME280;42934;54.294;18.598;2022-10-16T02:50:23;100531.66;;;13.77;91.30
57048;BME280;42934;54.294;18.598;2022-10-16T02:52:53;100536.06;;;13.76;91.37
57048;BME280;42934;54.294;18.598;2022-10-16T02:55:21;100530.88;;;13.75;91.67
57048;BME280;42934;54.294;18.598;2022-10-16T02:57:50;100528.38;;;13.72;91.75
57048;BME280;42934;54.294;18.598;2022-10-16T03:00:20;100538.94;;;13.72;91.81
57048;BME280;42934;54.294;18.598;2022-10-16T03:02:50;100531.94;;;13.71;91.77
57048;BME280;42934;54.294;18.598;2022-10-16T03:05:19;100524.03;;;13.71;91.82
57048;BME280;42934;54.294;18.598;2022-10-16T03:07:53;100525.75;;;13.72;91.75
57048;BME280;42934;54.294;18.598;2022-10-16T03:10:23;100519.47;;;13.74;91.81
57048;BME280;42934;54.294;18.598;2022-10-16T03:12:52;100527.38;;;13.74;91.63
57048;BME280;42934;54.294;18.598;2022-10-16T03:15:20;100519.47;;;13.74;91.71
57048;BME280;42934;54.294;18.598;2022-10-16T03:17:51;100526.44;;;13.75;91.86
57048;BME280;42934;54.294;18.598;2022-10-16T03:20:20;100519.31;;;13.77;91.30
57048;BME280;42934;54.294;18.598;2022-10-16T03:22:49;100518.31;;;13.80;91.34
57048;BME280;42934;54.294;18.598;2022-10-16T03:25:18;100524.34;;;13.82;91.57
57048;BME280;42934;54.294;18.598;2022-10-16T03:27:47;100510.25;;;13.83;91.39
57048;BME280;42934;54.294;18.598;2022-10-16T03:30:16;100527.72;;;13.85;91.33
57048;BME280;42934;54.294;18.598;2022-10-16T03:32:45;100530.38;;;13.85;91.23
57048;BME280;42934;54.294;18.598;2022-10-16T03:35:15;100531.22;;;13.86;91.15
57048;BME280;42934;54.294;18.598;2022-10-16T03:37:44;100536.41;;;13.88;91.31
57048;BME280;42934;54.294;18.598;2022-10-16T03:40:13;100527.63;;;13.87;91.11
57048;BME280;42934;54.294;18.598;2022-10-16T03:42:43;100527.56;;;13.89;91.04
57048;BME280;42934;54.294;18.598;2022-10-16T03:45:12;100526.69;;;13.88;91.04
57048;BME280;42934;54.294;18.598;2022-10-16T03:47:41;100537.25;;;13.88;90.92
57048;BME280;42934;54.294;18.598;2022-10-16T03:50:10;100526.78;;;13.86;90.89
57048;BME280;42934;54.294;18.598;2022-10-16T03:52:40;100539.88;;;13.88;91.01
57048;BME280;42934;54.294;18.598;2022-10-16T03:55:09;100532.13;;;13.85;90.90
57048;BME280;42934;54.294;18.598;2022-10-16T03:57:38;100532.13;;;13.85;90.87
57048;BME280;42934;54.294;18.598;2022-10-16T04:00:08;100533.00;;;13.85;91.04
57048;BME280;42934;54.294;18.598;2022-10-16T04:02:40;100529.41;;;13.86;90.97
57048;BME280;42934;54.294;18.598;2022-10-16T04:05:09;100528.56;;;13.86;91.00
57048;BME280;42934;54.294;18.598;2022-10-16T04:07:40;100518.94;;;13.85;91.13
57048;BME280;42934;54.294;18.598;2022-10-16T04:10:08;100522.59;;;13.82;91.23
57048;BME280;42934;54.294;18.598;2022-10-16T04:12:37;100521.66;;;13.83;91.34
57048;BME280;42934;54.294;18.598;2022-10-16T04:15:07;100524.19;;;13.85;91.29
57048;BME280;42934;54.294;18.598;2022-10-16T04:17:36;100530.38;;;13.85;91.21
57048;BME280;42934;54.294;18.598;2022-10-16T04:20:06;100530.28;;;13.87;91.19
57048;BME280;42934;54.294;18.598;2022-10-16T04:22:35;100540.78;;;13.89;90.97
57048;BME280;42934;54.294;18.598;2022-10-16T04:25:05;100539.75;;;13.91;91.10
57048;BME280;42934;54.294;18.598;2022-10-16T04:27:34;100540.53;;;13.93;91.06
57048;BME280;42934;54.294;18.598;2022-10-16T04:30:07;100543.13;;;13.95;90.98
57048;BME280;42934;54.294;18.598;2022-10-16T04:32:36;100539.75;;;13.91;90.71
57048;BME280;42934;54.294;18.598;2022-10-16T04:35:05;100533.63;;;13.91;90.92
57048;BME280;42934;54.294;18.598;2022-10-16T04:37:34;100549.38;;;13.92;90.88
57048;BME280;42934;54.294;18.598;2022-10-16T04:40:06;100551.09;;;13.93;90.67
57048;BME280;42934;54.294;18.598;2022-10-16T04:42:35;100544.91;;;13.94;90.80
57048;BME280;42934;54.294;18.598;2022-10-16T04:45:05;100550.19;;;13.94;90.67
57048;BME280;42934;54.294;18.598;2022-10-16T04:47:40;100540.47;;;13.95;90.68
57048;BME280;42934;54.294;18.598;2022-10-16T04:50:09;100545.75;;;13.95;90.44
57048;BME280;42934;54.294;18.598;2022-10-16T04:52:38;100544.91;;;13.94;90.76
57048;BME280;42934;54.294;18.598;2022-10-16T04:55:09;100552.88;;;13.93;90.70
57048;BME280;42934;54.294;18.598;2022-10-16T04:57:38;100551.94;;;13.94;90.72
57048;BME280;42934;54.294;18.598;2022-10-16T05:00:08;100558.22;;;13.91;90.59
57048;BME280;42934;54.294;18.598;2022-10-16T05:02:37;100551.19;;;13.92;90.89
57048;BME280;42934;54.294;18.598;2022-10-16T05:05:06;100550.38;;;13.90;91.00
57048;BME280;42934;54.294;18.598;2022-10-16T05:07:35;100556.53;;;13.90;90.86
57048;BME280;42934;54.294;18.598;2022-10-16T05:10:05;100556.38;;;13.93;90.92
57048;BME280;42934;54.294;18.598;2022-10-16T05:12:35;100558.09;;;13.94;90.83
57048;BME280;42934;54.294;18.598;2022-10-16T05:15:04;100548.53;;;13.92;90.60
57048;BME280;42934;54.294;18.598;2022-10-16T05:17:34;100538.19;;;13.87;91.24
57048;BME280;42934;54.294;18.598;2022-10-16T05:20:07;100552.19;;;13.89;91.15
57048;BME280;42934;54.294;18.598;2022-10-16T05:22:36;100546.97;;;13.88;91.20
57048;BME280;42934;54.294;18.598;2022-10-16T05:25:05;100548.59;;;13.90;91.26
57048;BME280;42934;54.294;18.598;2022-10-16T05:27:36;100561.75;;;13.92;90.98
57048;BME280;42934;54.294;18.598;2022-10-16T05:30:06;100557.22;;;13.94;90.93
57048;BME280;42934;54.294;18.598;2022-10-16T05:32:39;100554.66;;;13.92;90.90
57048;BME280;42934;54.294;18.598;2022-10-16T05:35:08;100568.66;;;13.94;91.05
57048;BME280;42934;54.294;18.598;2022-10-16T05:37:39;100564.22;;;13.95;90.84
57048;BME280;42934;54.294;18.598;2022-10-16T05:40:09;100562.50;;;13.94;91.15
57048;BME280;42934;54.294;18.598;2022-10-16T05:42:39;100559.00;;;13.93;91.19
57048;BME280;42934;54.294;18.598;2022-10-16T05:45:10;100563.44;;;13.93;91.13
57048;BME280;42934;54.294;18.598;2022-10-16T05:47:40;100565.13;;;13.94;91.41
57048;BME280;42934;54.294;18.598;2022-10-16T05:50:09;100576.56;;;13.94;91.55
57048;BME280;42934;54.294;18.598;2022-10-16T05:52:38;100582.75;;;13.93;91.18
57048;BME280;42934;54.294;18.598;2022-10-16T05:55:07;100587.25;;;13.91;91.50
57048;BME280;42934;54.294;18.598;2022-10-16T05:57:36;100573.06;;;13.94;91.21
57048;BME280;42934;54.294;18.598;2022-10-16T06:00:08;100581.97;;;13.91;91.40
57048;BME280;42934;54.294;18.598;2022-10-16T06:02:40;100590.63;;;13.95;91.19
57048;BME280;42934;54.294;18.598;2022-10-16T06:05:09;100606.38;;;13.96;91.22
57048;BME280;42934;54.294;18.598;2022-10-16T06:07:38;100604.69;;;13.95;91.32
57048;BME280;42934;54.294;18.598;2022-10-16T06:10:08;100604.69;;;13.95;91.32
57048;BME280;42934;54.294;18.598;2022-10-16T06:12:37;100602.97;;;13.94;91.14
57048;BME280;42934;54.294;18.598;2022-10-16T06:15:08;100616.88;;;13.98;91.23
57048;BME280;42934;54.294;18.598;2022-10-16T06:17:37;100619.44;;;13.99;91.21
57048;BME280;42934;54.294;18.598;2022-10-16T06:20:06;100615.00;;;14.00;91.17
57048;BME280;42934;54.294;18.598;2022-10-16T06:22:36;100621.16;;;14.00;91.23
57048;BME280;42934;54.294;18.598;2022-10-16T06:25:05;100620.13;;;14.03;91.11
57048;BME280;42934;54.294;18.598;2022-10-16T06:27:34;100624.56;;;14.02;91.12
57048;BME280;42934;54.294;18.598;2022-10-16T06:30:04;100626.22;;;14.05;90.88
57048;BME280;42934;54.294;18.598;2022-10-16T06:32:34;100632.34;;;14.05;90.83
57048;BME280;42934;54.294;18.598;2022-10-16T06:35:03;100640.25;;;14.05;90.87
57048;BME280;42934;54.294;18.598;2022-10-16T06:37:32;100651.59;;;14.07;90.96
57048;BME280;42934;54.294;18.598;2022-10-16T06:40:01;100656.84;;;14.09;90.83
57048;BME280;42934;54.294;18.598;2022-10-16T06:42:32;100655.03;;;14.09;90.52
57048;BME280;42934;54.294;18.598;2022-10-16T06:45:01;100643.53;;;14.11;90.65
57048;BME280;42934;54.294;18.598;2022-10-16T06:47:30;100649.63;;;14.13;90.65
57048;BME280;42934;54.294;18.598;2022-10-16T06:50:00;100648.75;;;14.12;90.69
57048;BME280;42934;54.294;18.598;2022-10-16T06:52:29;100652.25;;;14.13;90.79
57048;BME280;42934;54.294;18.598;2022-10-16T06:54:58;100655.75;;;14.13;90.63
57048;BME280;42934;54.294;18.598;2022-10-16T06:57:27;100648.63;;;14.15;90.69
57048;BME280;42934;54.294;18.598;2022-10-16T06:59:56;100653.75;;;14.18;90.58
57048;BME280;42934;54.294;18.598;2022-10-16T07:02:25;100649.31;;;14.19;90.48
57048;BME280;42934;54.294;18.598;2022-10-16T07:04:55;100658.03;;;14.21;90.49
57048;BME280;42934;54.294;18.598;2022-10-16T07:07:26;100657.09;;;14.22;90.77
57048;BME280;42934;54.294;18.598;2022-10-16T07:09:54;100656.16;;;14.23;90.63
57048;BME280;42934;54.294;18.598;2022-10-16T07:12:23;100653.50;;;14.23;90.63
57048;BME280;42934;54.294;18.598;2022-10-16T07:14:52;100651.72;;;14.23;90.69
57048;BME280;42934;54.294;18.598;2022-10-16T07:17:22;100644.53;;;14.27;90.53
57048;BME280;42934;54.294;18.598;2022-10-16T07:19:51;100653.22;;;14.29;90.64
57048;BME280;42934;54.294;18.598;2022-10-16T07:22:21;100651.47;;;14.29;90.66
57048;BME280;42934;54.294;18.598;2022-10-16T07:24:51;100656.59;;;14.32;90.63
57048;BME280;42934;54.294;18.598;2022-10-16T07:27:21;100658.28;;;14.34;90.60
57048;BME280;42934;54.294;18.598;2022-10-16T07:29:51;100652.16;;;14.33;90.63
57048;BME280;42934;54.294;18.598;2022-10-16T07:32:20;100658.22;;;14.35;90.73
57048;BME280;42934;54.294;18.598;2022-10-16T07:34:49;100665.28;;;14.35;90.81
57048;BME280;42934;54.294;18.598;2022-10-16T07:37:18;100663.44;;;14.37;90.59
57048;BME280;42934;54.294;18.598;2022-10-16T07:39:47;100671.34;;;14.37;90.64
57048;BME280;42934;54.294;18.598;2022-10-16T07:42:17;100670.50;;;14.36;90.63
57048;BME280;42934;54.294;18.598;2022-10-16T07:44:47;100680.06;;;14.39;90.75
57048;BME280;42934;54.294;18.598;2022-10-16T07:47:16;100678.28;;;14.39;90.82
57048;BME280;42934;54.294;18.598;2022-10-16T07:49:45;100679.06;;;14.41;90.52
57048;BME280;42934;54.294;18.598;2022-10-16T07:52:14;100676.28;;;14.44;90.44
57048;BME280;42934;54.294;18.598;2022-10-16T07:54:43;100672.69;;;14.45;90.52
57048;BME280;42934;54.294;18.598;2022-10-16T07:57:12;100671.00;;;14.44;90.53
57048;BME280;42934;54.294;18.598;2022-10-16T07:59:47;100674.41;;;14.46;90.67
57048;BME280;42934;54.294;18.598;2022-10-16T08:02:17;100683.97;;;14.49;90.60
57048;BME280;42934;54.294;18.598;2022-10-16T08:04:47;100693.59;;;14.50;90.52
57048;BME280;42934;54.294;18.598;2022-10-16T08:07:17;100688.41;;;14.48;90.68
57048;BME280;42934;54.294;18.598;2022-10-16T08:09:49;100705.09;;;14.49;90.46
57048;BME280;42934;54.294;18.598;2022-10-16T08:12:19;100711.19;;;14.51;90.75
57048;BME280;42934;54.294;18.598;2022-10-16T08:14:49;100724.38;;;14.51;90.69
57048;BME280;42934;54.294;18.598;2022-10-16T08:17:18;100726.91;;;14.54;90.63
57048;BME280;42934;54.294;18.598;2022-10-16T08:19:47;100726.97;;;14.52;90.61
57048;BME280;42934;54.294;18.598;2022-10-16T08:22:16;100723.34;;;14.55;90.75
57048;BME280;42934;54.294;18.598;2022-10-16T08:24:45;100729.41;;;14.57;90.67
57048;BME280;42934;54.294;18.598;2022-10-16T08:27:14;100729.41;;;14.57;90.57
57048;BME280;42934;54.294;18.598;2022-10-16T08:29:43;100724.91;;;14.59;90.58
57048;BME280;42934;54.294;18.598;2022-10-16T08:32:14;100723.03;;;14.61;90.66
57048;BME280;42934;54.294;18.598;2022-10-16T08:34:43;100729.16;;;14.62;90.55
57048;BME280;42934;54.294;18.598;2022-10-16T08:37:12;100730.75;;;14.66;90.69
57048;BME280;42934;54.294;18.598;2022-10-16T08:39:41;100737.84;;;14.65;90.56
57048;BME280;42934;54.294;18.598;2022-10-16T08:42:37;100735.09;;;14.67;90.70
57048;BME280;42934;54.294;18.598;2022-10-16T08:45:25;100739.47;;;14.68;90.68
57048;BME280;42934;54.294;18.598;2022-10-16T08:48:08;100749.91;;;14.71;90.54
57048;BME280;42934;54.294;18.598;2022-10-16T08:50:41;100745.53;;;14.70;90.72
57048;BME280;42934;54.294;18.598;2022-10-16T08:53:16;100742.81;;;14.71;90.48
57048;BME280;42934;54.294;18.598;2022-10-16T08:55:49;100754.09;;;14.75;90.59
57048;BME280;42934;54.294;18.598;2022-10-16T08:58:20;100747.97;;;14.74;90.71
57048;BME280;42934;54.294;18.598;2022-10-16T09:00:53;100746.97;;;14.77;90.60
57048;BME280;42934;54.294;18.598;2022-10-16T09:03:33;100754.88;;;14.77;90.59
57048;BME280;42934;54.294;18.598;2022-10-16T09:06:23;100753.88;;;14.80;90.63
57048;BME280;42934;54.294;18.598;2022-10-16T09:09:08;100738.94;;;14.79;90.68
57048;BME280;42934;54.294;18.598;2022-10-16T09:11:47;100738.88;;;14.80;90.74
57048;BME280;42934;54.294;18.598;2022-10-16T09:14:39;100740.38;;;14.86;90.64
57048;BME280;42934;54.294;18.598;2022-10-16T09:17:24;100744.78;;;14.85;90.74
57048;BME280;42934;54.294;18.598;2022-10-16T09:20:02;100742.06;;;14.87;90.64
57048;BME280;42934;54.294;18.598;2022-10-16T09:22:33;100738.41;;;14.89;90.51
57048;BME280;42934;54.294;18.598;2022-10-16T09:25:12;100735.63;;;14.92;90.61
57048;BME280;42934;54.294;18.598;2022-10-16T09:27:42;100743.47;;;14.94;90.39
57048;BME280;42934;54.294;18.598;2022-10-16T09:30:16;100739.06;;;14.94;90.43
57048;BME280;42934;54.294;18.598;2022-10-16T09:32:48;100753.88;;;14.97;90.47
57048;BME280;42934;54.294;18.598;2022-10-16T09:35:22;100752.19;;;14.96;90.51
57048;BME280;42934;54.294;18.598;2022-10-16T09:37:53;100752.97;;;14.98;90.42
57048;BME280;42934;54.294;18.598;2022-10-16T09:40:28;100759.06;;;15.00;90.69
57048;BME280;42934;54.294;18.598;2022-10-16T09:43:03;100753.69;;;15.02;90.43
57048;BME280;42934;54.294;18.598;2022-10-16T09:45:35;100773.81;;;15.04;90.39
57048;BME280;42934;54.294;18.598;2022-10-16T09:48:11;100760.50;;;15.06;90.40
57048;BME280;42934;54.294;18.598;2022-10-16T09:50:42;100761.31;;;15.08;90.63
57048;BME280;42934;54.294;18.598;2022-10-16T09:53:12;100757.72;;;15.09;90.63
57048;BME280;42934;54.294;18.598;2022-10-16T09:55:51;100758.50;;;15.11;90.55
57048;BME280;42934;54.294;18.598;2022-10-16T09:58:22;100756.88;;;15.08;90.63
57048;BME280;42934;54.294;18.598;2022-10-16T10:00:53;100763.78;;;15.11;90.44
57048;BME280;42934;54.294;18.598;2022-10-16T10:03:36;100761.00;;;15.14;90.64
57048;BME280;42934;54.294;18.598;2022-10-16T10:06:20;100768.88;;;15.15;90.63
57048;BME280;42934;54.294;18.598;2022-10-16T10:08:55;100783.94;;;15.13;90.75
57048;BME280;42934;54.294;18.598;2022-10-16T10:11:47;100773.22;;;15.16;90.64
57048;BME280;42934;54.294;18.598;2022-10-16T10:14:32;100777.56;;;15.17;90.63
57048;BME280;42934;54.294;18.598;2022-10-16T10:17:16;100789.03;;;15.18;90.69
57048;BME280;42934;54.294;18.598;2022-10-16T10:19:48;100799.59;;;15.18;90.63
57048;BME280;42934;54.294;18.598;2022-10-16T10:22:29;100803.81;;;15.22;90.68
57048;BME280;42934;54.294;18.598;2022-10-16T10:25:15;100806.50;;;15.20;90.42
57048;BME280;42934;54.294;18.598;2022-10-16T10:28:06;100809.94;;;15.22;90.48
57048;BME280;42934;54.294;18.598;2022-10-16T10:30:43;100809.88;;;15.24;90.50
57048;BME280;42934;54.294;18.598;2022-10-16T10:33:24;100809.88;;;15.24;90.52
57048;BME280;42934;54.294;18.598;2022-10-16T10:36:03;100811.59;;;15.25;90.60
57048;BME280;42934;54.294;18.598;2022-10-16T10:38:41;100811.59;;;15.25;90.66
57048;BME280;42934;54.294;18.598;2022-10-16T10:41:27;100799.91;;;15.29;90.73
57048;BME280;42934;54.294;18.598;2022-10-16T10:44:06;100804.19;;;15.32;90.71
57048;BME280;42934;54.294;18.598;2022-10-16T10:46:45;100802.28;;;15.35;90.65
57048;BME280;42934;54.294;18.598;2022-10-16T10:49:29;100807.47;;;15.37;90.51
57048;BME280;42934;54.294;18.598;2022-10-16T10:52:26;100808.25;;;15.39;90.63
57048;BME280;42934;54.294;18.598;2022-10-16T10:55:08;100806.53;;;15.38;90.66
57048;BME280;42934;54.294;18.598;2022-10-16T10:57:44;100801.22;;;15.38;91.06
57048;BME280;42934;54.294;18.598;2022-10-16T11:00:21;100803.72;;;15.41;90.79
57048;BME280;42934;54.294;18.598;2022-10-16T11:02:59;100804.50;;;15.43;90.77
57048;BME280;42934;54.294;18.598;2022-10-16T11:05:44;100807.84;;;15.47;90.49
57048;BME280;42934;54.294;18.598;2022-10-16T11:08:17;100805.22;;;15.47;90.56
57048;BME280;42934;54.294;18.598;2022-10-16T11:10:53;100809.50;;;15.49;90.87
57048;BME280;42934;54.294;18.598;2022-10-16T11:13:30;100805.84;;;15.52;90.44
57048;BME280;42934;54.294;18.598;2022-10-16T11:16:06;100798.53;;;15.57;90.57
57048;BME280;42934;54.294;18.598;2022-10-16T11:18:45;100796.50;;;15.62;90.38
57048;BME280;42934;54.294;18.598;2022-10-16T11:21:20;100803.41;;;15.64;90.47
57048;BME280;42934;54.294;18.598;2022-10-16T11:24:01;100803.28;;;15.67;90.42
57048;BME280;42934;54.294;18.598;2022-10-16T11:26:38;100797.88;;;15.71;90.16
57048;BME280;42934;54.294;18.598;2022-10-16T11:29:14;100794.09;;;15.75;90.36
57048;BME280;42934;54.294;18.598;2022-10-16T11:31:50;100806.19;;;15.80;90.10
57048;BME280;42934;54.294;18.598;2022-10-16T11:34:24;100801.50;;;15.85;89.98
57048;BME280;42934;54.294;18.598;2022-10-16T11:36:58;100796.13;;;15.87;90.14
57048;BME280;42934;54.294;18.598;2022-10-16T11:39:31;100791.59;;;15.89;89.84
57048;BME280;42934;54.294;18.598;2022-10-16T11:42:07;100798.44;;;15.93;89.85
57048;BME280;42934;54.294;18.598;2022-10-16T11:44:53;100795.72;;;15.95;89.82
57048;BME280;42934;54.294;18.598;2022-10-16T11:47:27;100800.00;;;15.97;89.76
57048;BME280;42934;54.294;18.598;2022-10-16T11:50:25;100802.56;;;15.99;89.75
57048;BME280;42934;54.294;18.598;2022-10-16T11:53:01;100803.25;;;16.02;89.52
57048;BME280;42934;54.294;18.598;2022-10-16T11:55:35;100804.97;;;16.03;89.46
57048;BME280;42934;54.294;18.598;2022-10-16T11:58:20;100803.94;;;16.06;89.28
57048;BME280;42934;54.294;18.598;2022-10-16T12:00:58;100813.59;;;16.07;89.43
57048;BME280;42934;54.294;18.598;2022-10-16T12:03:31;100802.91;;;16.08;89.34
57048;BME280;42934;54.294;18.598;2022-10-16T12:06:18;100812.25;;;16.16;89.04
57048;BME280;42934;54.294;18.598;2022-10-16T12:08:53;100810.91;;;16.24;88.88
57048;BME280;42934;54.294;18.598;2022-10-16T12:11:33;100814.16;;;16.29;88.45
57048;BME280;42934;54.294;18.598;2022-10-16T12:14:16;100809.56;;;16.33;88.27
57048;BME280;42934;54.294;18.598;2022-10-16T12:16:57;100809.22;;;16.39;88.25
57048;BME280;42934;54.294;18.598;2022-10-16T12:19:29;100815.22;;;16.43;88.14
57048;BME280;42934;54.294;18.598;2022-10-16T12:21:59;100821.19;;;16.46;87.68
57048;BME280;42934;54.294;18.598;2022-10-16T12:24:33;100823.69;;;16.49;87.36
57048;BME280;42934;54.294;18.598;2022-10-16T12:27:04;100825.16;;;16.55;86.81
57048;BME280;42934;54.294;18.598;2022-10-16T12:29:38;100818.75;;;16.59;86.29
57048;BME280;42934;54.294;18.598;2022-10-16T12:32:26;100828.91;;;16.67;86.35
57048;BME280;42934;54.294;18.598;2022-10-16T12:35:20;100822.78;;;16.82;86.05
57048;BME280;42934;54.294;18.598;2022-10-16T12:37:50;100824.94;;;16.91;85.52
57048;BME280;42934;54.294;18.598;2022-10-16T12:40:24;100825.63;;;16.95;85.27
57048;BME280;42934;54.294;18.598;2022-10-16T12:42:54;100832.28;;;17.02;85.22
57048;BME280;42934;54.294;18.598;2022-10-16T12:45:31;100831.34;;;17.03;84.61
57048;BME280;42934;54.294;18.598;2022-10-16T12:48:02;100836.88;;;17.14;84.23
57048;BME280;42934;54.294;18.598;2022-10-16T12:50:34;100832.28;;;17.18;83.48
57048;BME280;42934;54.294;18.598;2022-10-16T12:53:17;100834.59;;;17.24;83.47
57048;BME280;42934;54.294;18.598;2022-10-16T12:55:56;100830.72;;;17.30;83.43
57048;BME280;42934;54.294;18.598;2022-10-16T12:58:51;100833.94;;;17.35;82.84
57048;BME280;42934;54.294;18.598;2022-10-16T13:01:37;100844.38;;;17.38;82.72
57048;BME280;42934;54.294;18.598;2022-10-16T13:04:22;100847.91;;;17.38;82.34
57048;BME280;42934;54.294;18.598;2022-10-16T13:07:15;100845.09;;;17.41;82.25
57048;BME280;42934;54.294;18.598;2022-10-16T13:09:59;100840.25;;;17.48;81.77